sensor_id;sensor_type;location;lat;lon;timestamp;pressure;altitude;pressure_sealevel;temperature;humidity
39769;BME280;38939;47.824;14.642;2023-07-09T00:00:16;97325.91;;;20.73;72.05
39769;BME280;38939;47.824;14.642;2023-07-09T00:01:19;97332.22;;;20.67;72.07
39769;BME280;38939;47.824;14.642;2023-07-09T00:02:24;97326.63;;;20.64;72.10
39769;BME280;38939;47.824;14.642;2023-07-09T00:03:27;97325.84;;;20.63;73.32
39769;BME280;38939;47.824;14.642;2023-07-09T00:04:29;97323.97;;;20.58;73.31
39769;BME280;38939;47.824;14.642;2023-07-09T00:05:31;97325.44;;;20.49;74.10
39769;BME280;38939;47.824;14.642;2023-07-09T00:06:32;97330.69;;;20.39;74.49
39769;BME280;38939;47.824;14.642;2023-07-09T00:07:35;97333.81;;;20.31;75.14
39769;BME280;38939;47.824;14.642;2023-07-09T00:08:37;97325.81;;;20.26;74.97
39769;BME280;38939;47.824;14.642;2023-07-09T00:09:42;97329.81;;;20.28;74.31
39769;BME280;38939;47.824;14.642;2023-07-09T00:10:44;97322.91;;;20.27;74.96
39769;BME280;38939;47.824;14.642;2023-07-09T00:11:46;97330.88;;;20.27;74.82
39769;BME280;38939;47.824;14.642;2023-07-09T00:12:47;97325.31;;;20.29;74.48
39769;BME280;38939;47.824;14.642;2023-07-09T00:13:49;97330.91;;;20.32;73.96
39769;BME280;38939;47.824;14.642;2023-07-09T00:14:52;97330.09;;;20.32;74.43
39769;BME280;38939;47.824;14.642;2023-07-09T00:15:55;97329.53;;;20.30;74.43
39769;BME280;38939;47.824;14.642;2023-07-09T00:16:58;97327.91;;;20.24;74.70
39769;BME280;38939;47.824;14.642;2023-07-09T00:18:00;97331.09;;;20.21;74.10
39769;BME280;38939;47.824;14.642;2023-07-09T00:19:03;97333.44;;;20.17;74.92
39769;BME280;38939;47.824;14.642;2023-07-09T00:20:07;97330.47;;;20.08;75.11
39769;BME280;38939;47.824;14.642;2023-07-09T00:21:18;97337.31;;;20.04;75.17
39769;BME280;38939;47.824;14.642;2023-07-09T00:22:21;97337.06;;;20.06;74.39
39769;BME280;38939;47.824;14.642;2023-07-09T00:23:23;97342.63;;;20.09;74.20
39769;BME280;38939;47.824;14.642;2023-07-09T00:24:25;97341.59;;;20.10;74.55
39769;BME280;38939;47.824;14.642;2023-07-09T00:25:28;97341.34;;;20.12;73.98
39769;BME280;38939;47.824;14.642;2023-07-09T00:26:30;97351.44;;;20.15;73.80
39769;BME280;38939;47.824;14.642;2023-07-09T00:27:33;97341.09;;;20.13;73.41
39769;BME280;38939;47.824;14.642;2023-07-09T00:28:36;97344.00;;;20.12;73.25
39769;BME280;38939;47.824;14.642;2023-07-09T00:29:38;97337.34;;;20.09;73.17
39769;BME280;38939;47.824;14.642;2023-07-09T00:30:39;97348.47;;;20.06;73.54
39769;BME280;38939;47.824;14.642;2023-07-09T00:31:41;97343.16;;;20.06;73.46
39769;BME280;38939;47.824;14.642;2023-07-09T00:32:43;97351.66;;;20.08;74.11
39769;BME280;38939;47.824;14.642;2023-07-09T00:33:45;97355.34;;;20.07;74.41
39769;BME280;38939;47.824;14.642;2023-07-09T00:34:48;97348.16;;;20.03;74.69
39769;BME280;38939;47.824;14.642;2023-07-09T00:35:50;97352.59;;;19.97;75.52
39769;BME280;38939;47.824;14.642;2023-07-09T00:36:54;97349.66;;;19.93;75.38
39769;BME280;38939;47.824;14.642;2023-07-09T00:37:56;97347.81;;;19.94;75.13
39769;BME280;38939;47.824;14.642;2023-07-09T00:39:01;97355.25;;;19.97;74.81
39769;BME280;38939;47.824;14.642;2023-07-09T00:40:09;97351.28;;;19.99;74.53
39769;BME280;38939;47.824;14.642;2023-07-09T00:41:13;97359.78;;;20.02;74.61
39769;BME280;38939;47.824;14.642;2023-07-09T00:42:20;97347.84;;;19.99;75.18
39769;BME280;38939;47.824;14.642;2023-07-09T00:43:22;97348.63;;;19.99;74.98
39769;BME280;38939;47.824;14.642;2023-07-09T00:44:28;97354.75;;;20.00;74.66
39769;BME280;38939;47.824;14.642;2023-07-09T00:45:30;97352.91;;;20.01;74.46
39769;BME280;38939;47.824;14.642;2023-07-09T00:48:37;97356.34;;;20.01;74.44
39769;BME280;38939;47.824;14.642;2023-07-09T00:49:39;97357.97;;;20.02;74.37
39769;BME280;38939;47.824;14.642;2023-07-09T00:50:49;97361.66;;;20.01;75.42
39769;BME280;38939;47.824;14.642;2023-07-09T00:51:53;97357.91;;;19.97;76.14
39769;BME280;38939;47.824;14.642;2023-07-09T00:52:56;97358.97;;;19.96;75.70
39769;BME280;38939;47.824;14.642;2023-07-09T00:54:01;97361.84;;;19.94;75.60
39769;BME280;38939;47.824;14.642;2023-07-09T00:55:09;97359.66;;;19.86;75.70
39769;BME280;38939;47.824;14.642;2023-07-09T00:56:14;97360.97;;;19.84;75.64
39769;BME280;38939;47.824;14.642;2023-07-09T00:57:19;97360.97;;;19.84;75.45
39769;BME280;38939;47.824;14.642;2023-07-09T00:58:21;97359.91;;;19.85;75.28
39769;BME280;38939;47.824;14.642;2023-07-09T00:59:28;97360.97;;;19.84;75.35
39769;BME280;38939;47.824;14.642;2023-07-09T01:00:37;97362.00;;;19.83;75.50
39769;BME280;38939;47.824;14.642;2023-07-09T01:01:48;97366.44;;;19.77;75.55
39769;BME280;38939;47.824;14.642;2023-07-09T01:02:51;97364.84;;;19.76;75.52
39769;BME280;38939;47.824;14.642;2023-07-09T01:03:54;97363.56;;;19.78;76.28
39769;BME280;38939;47.824;14.642;2023-07-09T01:05:01;97366.19;;;19.78;76.36
39769;BME280;38939;47.824;14.642;2023-07-09T01:06:03;97358.25;;;19.78;75.95
39769;BME280;38939;47.824;14.642;2023-07-09T01:07:07;97358.25;;;19.78;75.93
39769;BME280;38939;47.824;14.642;2023-07-09T01:08:10;97367.00;;;19.79;75.62
39769;BME280;38939;47.824;14.642;2023-07-09T01:09:14;97365.16;;;19.80;75.05
39769;BME280;38939;47.824;14.642;2023-07-09T01:10:17;97361.44;;;19.81;75.06
39769;BME280;38939;47.824;14.642;2023-07-09T01:11:20;97369.41;;;19.81;75.07
39769;BME280;38939;47.824;14.642;2023-07-09T01:12:23;97361.44;;;19.81;75.87
39769;BME280;38939;47.824;14.642;2023-07-09T01:13:26;97370.47;;;19.80;75.99
39769;BME280;38939;47.824;14.642;2023-07-09T01:14:28;97371.25;;;19.80;75.62
39769;BME280;38939;47.824;14.642;2023-07-09T01:15:30;97365.72;;;19.82;75.37
39769;BME280;38939;47.824;14.642;2023-07-09T01:16:36;97365.44;;;19.83;75.45
39769;BME280;38939;47.824;14.642;2023-07-09T01:17:38;97364.41;;;19.84;75.36
39769;BME280;38939;47.824;14.642;2023-07-09T01:18:40;97366.81;;;19.86;75.23
39769;BME280;38939;47.824;14.642;2023-07-09T01:19:43;97367.59;;;19.86;74.95
39769;BME280;38939;47.824;14.642;2023-07-09T01:20:45;97374.25;;;19.89;74.80
39769;BME280;38939;47.824;14.642;2023-07-09T01:21:48;97379.53;;;19.89;74.59
39769;BME280;38939;47.824;14.642;2023-07-09T01:22:51;97375.03;;;19.89;74.46
39769;BME280;38939;47.824;14.642;2023-07-09T01:23:56;97378.50;;;19.90;74.35
39769;BME280;38939;47.824;14.642;2023-07-09T01:25:00;97384.84;;;19.89;74.34
39769;BME280;38939;47.824;14.642;2023-07-09T01:26:05;97385.38;;;19.91;74.47
39769;BME280;38939;47.824;14.642;2023-07-09T01:27:09;97383.81;;;19.90;74.38
39769;BME280;38939;47.824;14.642;2023-07-09T01:28:11;97387.25;;;19.90;74.30
39769;BME280;38939;47.824;14.642;2023-07-09T01:29:12;97387.25;;;19.90;74.15
39769;BME280;38939;47.824;14.642;2023-07-09T01:30:19;97386.44;;;19.90;74.31
39769;BME280;38939;47.824;14.642;2023-07-09T01:31:24;97381.16;;;19.90;74.19
39769;BME280;38939;47.824;14.642;2023-07-09T01:32:26;97378.75;;;19.88;74.51
39769;BME280;38939;47.824;14.642;2023-07-09T01:33:29;97382.94;;;19.84;74.67
39769;BME280;38939;47.824;14.642;2023-07-09T01:34:32;97385.84;;;19.83;74.53
39769;BME280;38939;47.824;14.642;2023-07-09T01:35:34;97380.53;;;19.83;74.28
39769;BME280;38939;47.824;14.642;2023-07-09T01:36:37;97379.50;;;19.84;74.37
39769;BME280;38939;47.824;14.642;2023-07-09T01:37:41;97377.88;;;19.83;74.25
39769;BME280;38939;47.824;14.642;2023-07-09T01:38:44;97376.00;;;19.78;74.60
39769;BME280;38939;47.824;14.642;2023-07-09T01:39:45;97380.50;;;19.77;74.26
39769;BME280;38939;47.824;14.642;2023-07-09T01:40:47;97374.66;;;19.75;74.60
39769;BME280;38939;47.824;14.642;2023-07-09T01:41:49;97375.44;;;19.76;74.36
39769;BME280;38939;47.824;14.642;2023-07-09T01:42:51;97384.97;;;19.77;74.38
39769;BME280;38939;47.824;14.642;2023-07-09T01:43:53;97391.88;;;19.78;74.69
39769;BME280;38939;47.824;14.642;2023-07-09T01:44:55;97389.25;;;19.78;75.05
39769;BME280;38939;47.824;14.642;2023-07-09T01:45:57;97383.41;;;19.76;74.96
39769;BME280;38939;47.824;14.642;2023-07-09T01:46:59;97398.50;;;19.75;74.78
39769;BME280;38939;47.824;14.642;2023-07-09T01:48:03;97386.84;;;19.76;74.74
39769;BME280;38939;47.824;14.642;2023-07-09T01:49:05;97392.91;;;19.77;74.71
39769;BME280;38939;47.824;14.642;2023-07-09T01:50:09;97393.75;;;19.77;74.49
39769;BME280;38939;47.824;14.642;2023-07-09T01:51:12;97390.28;;;19.77;74.49
39769;BME280;38939;47.824;14.642;2023-07-09T01:52:15;97398.72;;;19.74;74.45
39769;BME280;38939;47.824;14.642;2023-07-09T01:53:19;97391.03;;;19.72;74.17
39769;BME280;38939;47.824;14.642;2023-07-09T01:54:21;97388.63;;;19.71;74.05
39769;BME280;38939;47.824;14.642;2023-07-09T01:55:23;97393.09;;;19.70;74.08
39769;BME280;38939;47.824;14.642;2023-07-09T01:56:25;97383.31;;;19.71;73.88
39769;BME280;38939;47.824;14.642;2023-07-09T01:57:27;97384.94;;;19.72;73.73
39769;BME280;38939;47.824;14.642;2023-07-09T01:58:36;97384.94;;;19.72;73.94
39769;BME280;38939;47.824;14.642;2023-07-09T01:59:43;97386.53;;;19.73;74.06
39769;BME280;38939;47.824;14.642;2023-07-09T02:00:46;97381.22;;;19.73;74.17
39769;BME280;38939;47.824;14.642;2023-07-09T02:01:49;97379.41;;;19.73;74.17
39769;BME280;38939;47.824;14.642;2023-07-09T02:02:55;97394.75;;;19.71;75.10
39769;BME280;38939;47.824;14.642;2023-07-09T02:03:58;97397.59;;;19.70;75.43
39769;BME280;38939;47.824;14.642;2023-07-09T02:05:00;97394.41;;;19.68;76.21
39769;BME280;38939;47.824;14.642;2023-07-09T02:06:02;97396.72;;;19.64;76.08
39769;BME280;38939;47.824;14.642;2023-07-09T02:07:11;97395.94;;;19.64;75.45
39769;BME280;38939;47.824;14.642;2023-07-09T02:08:13;97400.41;;;19.63;75.46
39769;BME280;38939;47.824;14.642;2023-07-09T02:09:15;97398.88;;;19.67;75.36
39769;BME280;38939;47.824;14.642;2023-07-09T02:10:17;97399.94;;;19.66;75.18
39769;BME280;38939;47.824;14.642;2023-07-09T02:11:19;97389.34;;;19.66;74.96
39769;BME280;38939;47.824;14.642;2023-07-09T02:12:21;97396.81;;;19.69;74.61
39769;BME280;38939;47.824;14.642;2023-07-09T02:13:23;97398.38;;;19.70;74.91
39769;BME280;38939;47.824;14.642;2023-07-09T02:14:25;97395.75;;;19.70;75.47
39769;BME280;38939;47.824;14.642;2023-07-09T02:15:27;97398.63;;;19.69;75.46
39769;BME280;38939;47.824;14.642;2023-07-09T02:16:29;97402.28;;;19.63;76.15
39769;BME280;38939;47.824;14.642;2023-07-09T02:17:31;97398.47;;;19.53;76.45
39769;BME280;38939;47.824;14.642;2023-07-09T02:18:33;97401.34;;;19.52;76.32
39769;BME280;38939;47.824;14.642;2023-07-09T02:19:35;97396.06;;;19.52;76.00
39769;BME280;38939;47.824;14.642;2023-07-09T02:20:37;97401.34;;;19.52;76.59
39769;BME280;38939;47.824;14.642;2023-07-09T02:21:39;97399.75;;;19.51;76.94
39769;BME280;38939;47.824;14.642;2023-07-09T02:22:41;97402.66;;;19.49;77.32
39769;BME280;38939;47.824;14.642;2023-07-09T02:23:44;97405.31;;;19.49;77.09
39769;BME280;38939;47.824;14.642;2023-07-09T02:24:46;97399.19;;;19.49;76.63
39769;BME280;38939;47.824;14.642;2023-07-09T02:25:47;97406.09;;;19.50;76.27
39769;BME280;38939;47.824;14.642;2023-07-09T02:26:50;97402.66;;;19.49;75.87
39769;BME280;38939;47.824;14.642;2023-07-09T02:27:52;97405.53;;;19.48;75.77
39769;BME280;38939;47.824;14.642;2023-07-09T02:28:54;97406.34;;;19.48;75.64
39769;BME280;38939;47.824;14.642;2023-07-09T02:29:55;97407.94;;;19.49;75.24
39769;BME280;38939;47.824;14.642;2023-07-09T02:30:57;97410.84;;;19.48;75.17
39769;BME280;38939;47.824;14.642;2023-07-09T02:32:00;97410.03;;;19.47;75.38
39769;BME280;38939;47.824;14.642;2023-07-09T02:33:02;97406.56;;;19.47;76.01
39769;BME280;38939;47.824;14.642;2023-07-09T02:34:04;97408.66;;;19.45;75.86
39769;BME280;38939;47.824;14.642;2023-07-09T02:35:06;97407.31;;;19.42;75.87
39769;BME280;38939;47.824;14.642;2023-07-09T02:36:08;97409.97;;;19.42;75.68
39769;BME280;38939;47.824;14.642;2023-07-09T02:37:09;97411.81;;;19.42;75.50
39769;BME280;38939;47.824;14.642;2023-07-09T02:38:11;97406.53;;;19.42;76.00
39769;BME280;38939;47.824;14.642;2023-07-09T02:39:13;97408.38;;;19.41;75.94
39769;BME280;38939;47.824;14.642;2023-07-09T02:40:16;97407.56;;;19.41;75.72
39769;BME280;38939;47.824;14.642;2023-07-09T02:41:18;97400.69;;;19.39;75.60
39769;BME280;38939;47.824;14.642;2023-07-09T02:42:20;97403.56;;;19.38;75.76
39769;BME280;38939;47.824;14.642;2023-07-09T02:43:22;97413.03;;;19.34;75.59
39769;BME280;38939;47.824;14.642;2023-07-09T02:44:24;97406.41;;;19.31;75.37
39769;BME280;38939;47.824;14.642;2023-07-09T02:45:26;97404.25;;;19.28;75.51
39769;BME280;38939;47.824;14.642;2023-07-09T02:46:28;97406.28;;;19.21;76.36
39769;BME280;38939;47.824;14.642;2023-07-09T02:47:30;97406.69;;;19.13;77.19
39769;BME280;38939;47.824;14.642;2023-07-09T02:48:32;97407.16;;;19.10;76.85
39769;BME280;38939;47.824;14.642;2023-07-09T02:49:34;97412.16;;;19.06;76.93
39769;BME280;38939;47.824;14.642;2023-07-09T02:50:35;97416.09;;;19.04;76.40
39769;BME280;38939;47.824;14.642;2023-07-09T02:51:37;97414.72;;;19.01;76.75
39769;BME280;38939;47.824;14.642;2023-07-09T02:52:39;97417.13;;;19.03;76.50
39769;BME280;38939;47.824;14.642;2023-07-09T02:53:41;97418.72;;;19.04;76.79
39769;BME280;38939;47.824;14.642;2023-07-09T02:54:43;97415.75;;;19.00;77.48
39769;BME280;38939;47.824;14.642;2023-07-09T02:55:45;97419.47;;;18.99;78.03
39769;BME280;38939;47.824;14.642;2023-07-09T02:56:46;97415.75;;;19.00;77.85
39769;BME280;38939;47.824;14.642;2023-07-09T02:57:48;97412.66;;;19.03;77.66
39769;BME280;38939;47.824;14.642;2023-07-09T02:58:50;97418.72;;;19.04;77.44
39769;BME280;38939;47.824;14.642;2023-07-09T02:59:52;97420.09;;;19.06;77.18
39769;BME280;38939;47.824;14.642;2023-07-09T03:00:54;97419.84;;;19.08;76.56
39769;BME280;38939;47.824;14.642;2023-07-09T03:01:56;97420.91;;;19.07;77.00
39769;BME280;38939;47.824;14.642;2023-07-09T03:02:58;97415.06;;;19.05;76.62
39769;BME280;38939;47.824;14.642;2023-07-09T03:04:01;97420.34;;;19.05;76.43
39769;BME280;38939;47.824;14.642;2023-07-09T03:05:05;97415.06;;;19.05;75.99
39769;BME280;38939;47.824;14.642;2023-07-09T03:06:07;97420.91;;;19.07;76.04
39769;BME280;38939;47.824;14.642;2023-07-09T03:07:09;97424.56;;;19.06;76.33
39769;BME280;38939;47.824;14.642;2023-07-09T03:08:11;97423.53;;;19.07;76.49
39769;BME280;38939;47.824;14.642;2023-07-09T03:09:14;97422.66;;;19.01;77.02
39769;BME280;38939;47.824;14.642;2023-07-09T03:10:16;97424.19;;;18.97;77.71
39769;BME280;38939;47.824;14.642;2023-07-09T03:11:18;97424.91;;;18.92;76.89
39769;BME280;38939;47.824;14.642;2023-07-09T03:12:20;97428.28;;;18.88;76.99
39769;BME280;38939;47.824;14.642;2023-07-09T03:13:22;97427.41;;;18.82;77.10
39769;BME280;38939;47.824;14.642;2023-07-09T03:14:23;97427.06;;;18.78;76.90
39769;BME280;38939;47.824;14.642;2023-07-09T03:15:25;97428.69;;;18.79;76.98
39769;BME280;38939;47.824;14.642;2023-07-09T03:16:28;97426.38;;;18.83;77.17
39769;BME280;38939;47.824;14.642;2023-07-09T03:17:30;97431.44;;;18.85;77.48
39769;BME280;38939;47.824;14.642;2023-07-09T03:18:33;97429.06;;;18.88;77.52
39769;BME280;38939;47.824;14.642;2023-07-09T03:19:34;97432.28;;;18.90;77.39
39769;BME280;38939;47.824;14.642;2023-07-09T03:20:38;97431.25;;;18.91;77.76
39769;BME280;38939;47.824;14.642;2023-07-09T03:21:40;97434.44;;;18.93;77.49
39769;BME280;38939;47.824;14.642;2023-07-09T03:22:42;97428.09;;;18.94;77.45
39769;BME280;38939;47.824;14.642;2023-07-09T03:23:44;97435.00;;;18.95;77.42
39769;BME280;38939;47.824;14.642;2023-07-09T03:24:46;97434.50;;;18.98;77.31
39769;BME280;38939;47.824;14.642;2023-07-09T03:25:48;97437.16;;;18.98;77.42
39769;BME280;38939;47.824;14.642;2023-07-09T03:26:50;97428.75;;;19.02;77.59
39769;BME280;38939;47.824;14.642;2023-07-09T03:27:51;97431.41;;;19.02;78.14
39769;BME280;38939;47.824;14.642;2023-07-09T03:28:53;97434.84;;;19.02;77.98
39769;BME280;38939;47.824;14.642;2023-07-09T03:29:56;97434.03;;;19.02;77.97
39769;BME280;38939;47.824;14.642;2023-07-09T03:30:57;97431.41;;;19.02;78.01
39769;BME280;38939;47.824;14.642;2023-07-09T03:31:59;97430.09;;;19.04;77.83
39769;BME280;38939;47.824;14.642;2023-07-09T03:33:01;97432.75;;;19.04;77.42
39769;BME280;38939;47.824;14.642;2023-07-09T03:34:03;97435.94;;;19.06;77.82
39769;BME280;38939;47.824;14.642;2023-07-09T03:35:06;97430.66;;;19.06;77.73
39769;BME280;38939;47.824;14.642;2023-07-09T03:36:08;97434.13;;;19.07;77.26
39769;BME280;38939;47.824;14.642;2023-07-09T03:37:10;97429.41;;;19.09;77.33
39769;BME280;38939;47.824;14.642;2023-07-09T03:38:12;97423.03;;;19.10;77.16
39769;BME280;38939;47.824;14.642;2023-07-09T03:39:14;97433.38;;;19.11;77.03
39769;BME280;38939;47.824;14.642;2023-07-09T03:40:20;97431.31;;;19.13;77.46
39769;BME280;38939;47.824;14.642;2023-07-09T03:41:22;97432.59;;;19.11;77.64
39769;BME280;38939;47.824;14.642;2023-07-09T03:42:24;97434.97;;;19.12;77.27
39769;BME280;38939;47.824;14.642;2023-07-09T03:43:26;97428.34;;;19.10;77.20
39769;BME280;38939;47.824;14.642;2023-07-09T03:44:28;97431.78;;;19.10;77.37
39769;BME280;38939;47.824;14.642;2023-07-09T03:45:29;97430.97;;;19.10;77.23
39769;BME280;38939;47.824;14.642;2023-07-09T03:46:31;97430.97;;;19.10;77.38
39769;BME280;38939;47.824;14.642;2023-07-09T03:47:33;97436.50;;;19.08;77.46
39769;BME280;38939;47.824;14.642;2023-07-09T03:48:35;97434.69;;;19.09;77.28
39769;BME280;38939;47.824;14.642;2023-07-09T03:49:37;97441.81;;;19.08;77.34
39769;BME280;38939;47.824;14.642;2023-07-09T03:50:39;97433.31;;;19.06;77.19
39769;BME280;38939;47.824;14.642;2023-07-09T03:51:41;97437.00;;;19.05;76.97
39769;BME280;38939;47.824;14.642;2023-07-09T03:52:43;97440.44;;;19.06;76.83
39769;BME280;38939;47.824;14.642;2023-07-09T03:53:45;97446.28;;;19.08;76.55
39769;BME280;38939;47.824;14.642;2023-07-09T03:54:47;97441.00;;;19.08;76.33
39769;BME280;38939;47.824;14.642;2023-07-09T03:55:53;97437.34;;;19.09;76.36
39769;BME280;38939;47.824;14.642;2023-07-09T03:56:55;97444.63;;;19.02;77.30
39769;BME280;38939;47.824;14.642;2023-07-09T03:57:57;97445.59;;;18.95;77.77
39769;BME280;38939;47.824;14.642;2023-07-09T03:58:59;97442.38;;;18.93;76.90
39769;BME280;38939;47.824;14.642;2023-07-09T04:00:01;97440.53;;;18.94;76.74
39769;BME280;38939;47.824;14.642;2023-07-09T04:01:04;97447.19;;;18.96;76.75
39769;BME280;38939;47.824;14.642;2023-07-09T04:02:06;97447.19;;;18.96;76.70
39769;BME280;38939;47.824;14.642;2023-07-09T04:03:09;97450.38;;;18.98;76.52
39769;BME280;38939;47.824;14.642;2023-07-09T04:04:12;97447.19;;;18.96;77.04
39769;BME280;38939;47.824;14.642;2023-07-09T04:05:14;97447.69;;;18.93;77.50
39769;BME280;38939;47.824;14.642;2023-07-09T04:06:16;97449.75;;;18.91;77.60
39769;BME280;38939;47.824;14.642;2023-07-09T04:07:18;97446.31;;;18.91;77.17
39769;BME280;38939;47.824;14.642;2023-07-09T04:08:21;97448.47;;;18.94;77.20
39769;BME280;38939;47.824;14.642;2023-07-09T04:09:23;97453.53;;;18.95;77.08
39769;BME280;38939;47.824;14.642;2023-07-09T04:10:25;97453.03;;;18.98;76.94
39769;BME280;38939;47.824;14.642;2023-07-09T04:11:27;97450.38;;;18.98;76.87
39769;BME280;38939;47.824;14.642;2023-07-09T04:12:29;97450.38;;;18.98;76.86
39769;BME280;38939;47.824;14.642;2023-07-09T04:13:31;97453.59;;;19.01;76.96
39769;BME280;38939;47.824;14.642;2023-07-09T04:14:33;97454.41;;;19.01;77.14
39769;BME280;38939;47.824;14.642;2023-07-09T04:15:35;97449.13;;;19.01;77.07
39769;BME280;38939;47.824;14.642;2023-07-09T04:16:37;97452.56;;;19.02;76.92
39769;BME280;38939;47.824;14.642;2023-07-09T04:17:39;97450.72;;;19.02;77.77
39769;BME280;38939;47.824;14.642;2023-07-09T04:18:42;97456.00;;;19.02;78.34
39769;BME280;38939;47.824;14.642;2023-07-09T04:19:43;97459.94;;;18.99;78.97
39769;BME280;38939;47.824;14.642;2023-07-09T04:20:49;97456.72;;;18.97;79.38
39769;BME280;38939;47.824;14.642;2023-07-09T04:21:51;97449.03;;;18.96;79.30
39769;BME280;38939;47.824;14.642;2023-07-09T04:22:53;97451.66;;;18.96;79.13
39769;BME280;38939;47.824;14.642;2023-07-09T04:23:55;97448.00;;;18.97;78.84
39769;BME280;38939;47.824;14.642;2023-07-09T04:24:57;97452.00;;;18.99;78.46
39769;BME280;38939;47.824;14.642;2023-07-09T04:25:59;97451.75;;;19.01;78.13
39769;BME280;38939;47.824;14.642;2023-07-09T04:27:04;97453.34;;;19.02;78.04
39769;BME280;38939;47.824;14.642;2023-07-09T04:28:06;97452.31;;;19.03;78.03
39769;BME280;38939;47.824;14.642;2023-07-09T04:29:09;97444.16;;;19.05;77.69
39769;BME280;38939;47.824;14.642;2023-07-09T04:30:12;97456.31;;;19.06;77.53
39769;BME280;38939;47.824;14.642;2023-07-09T04:31:14;97457.94;;;19.07;77.72
39769;BME280;38939;47.824;14.642;2023-07-09T04:32:16;97462.16;;;19.08;77.47
39769;BME280;38939;47.824;14.642;2023-07-09T04:33:18;97449.44;;;19.05;77.86
39769;BME280;38939;47.824;14.642;2023-07-09T04:34:21;97451.50;;;19.03;77.83
39769;BME280;38939;47.824;14.642;2023-07-09T04:35:23;97453.13;;;19.04;77.70
39769;BME280;38939;47.824;14.642;2023-07-09T04:36:25;97453.91;;;19.04;77.68
39769;BME280;38939;47.824;14.642;2023-07-09T04:37:28;97452.88;;;19.05;77.64
39769;BME280;38939;47.824;14.642;2023-07-09T04:38:29;97457.94;;;19.07;77.65
39769;BME280;38939;47.824;14.642;2023-07-09T04:39:34;97451.59;;;19.08;77.40
39769;BME280;38939;47.824;14.642;2023-07-09T04:40:36;97448.94;;;19.08;77.43
39769;BME280;38939;47.824;14.642;2023-07-09T04:41:38;97449.72;;;19.08;77.61
39769;BME280;38939;47.824;14.642;2023-07-09T04:42:40;97449.72;;;19.08;77.63
39769;BME280;38939;47.824;14.642;2023-07-09T04:43:42;97450.56;;;19.09;77.44
39769;BME280;38939;47.824;14.642;2023-07-09T04:44:45;97456.63;;;19.09;77.35
39769;BME280;38939;47.824;14.642;2023-07-09T04:45:47;97457.44;;;19.10;77.88
39769;BME280;38939;47.824;14.642;2023-07-09T04:46:49;97458.72;;;19.07;77.87
39769;BME280;38939;47.824;14.642;2023-07-09T04:47:51;97452.09;;;19.05;78.32
39769;BME280;38939;47.824;14.642;2023-07-09T04:48:54;97452.31;;;19.03;78.63
39769;BME280;38939;47.824;14.642;2023-07-09T04:49:57;97452.31;;;19.03;78.30
39769;BME280;38939;47.824;14.642;2023-07-09T04:50:58;97455.75;;;19.04;78.13
39769;BME280;38939;47.824;14.642;2023-07-09T04:52:01;97452.88;;;19.05;77.75
39769;BME280;38939;47.824;14.642;2023-07-09T04:53:03;97457.94;;;19.07;77.68
39769;BME280;38939;47.824;14.642;2023-07-09T04:54:05;97453.19;;;19.09;78.00
39769;BME280;38939;47.824;14.642;2023-07-09T04:55:07;97458.72;;;19.07;78.50
39769;BME280;38939;47.824;14.642;2023-07-09T04:56:10;97457.94;;;19.07;78.42
39769;BME280;38939;47.824;14.642;2023-07-09T04:57:13;97457.66;;;19.08;78.31
39769;BME280;38939;47.824;14.642;2023-07-09T04:58:15;97453.19;;;19.09;78.00
39769;BME280;38939;47.824;14.642;2023-07-09T04:59:16;97452.16;;;19.10;77.76
39769;BME280;38939;47.824;14.642;2023-07-09T05:00:18;97459.06;;;19.11;77.50
39769;BME280;38939;47.824;14.642;2023-07-09T05:01:20;97451.66;;;19.13;77.50
39769;BME280;38939;47.824;14.642;2023-07-09T05:02:22;97455.91;;;19.14;77.45
39769;BME280;38939;47.824;14.642;2023-07-09T05:03:27;97455.91;;;19.14;77.27
39769;BME280;38939;47.824;14.642;2023-07-09T05:04:29;97458.31;;;19.15;77.27
39769;BME280;38939;47.824;14.642;2023-07-09T05:05:31;97456.47;;;19.16;77.13
39769;BME280;38939;47.824;14.642;2023-07-09T05:06:34;97450.13;;;19.17;77.33
39769;BME280;38939;47.824;14.642;2023-07-09T05:07:36;97454.59;;;19.16;77.28
39769;BME280;38939;47.824;14.642;2023-07-09T05:08:38;97455.44;;;19.17;77.59
39769;BME280;38939;47.824;14.642;2023-07-09T05:09:40;97455.16;;;19.18;77.34
39769;BME280;38939;47.824;14.642;2023-07-09T05:10:45;97452.78;;;19.17;78.21
39769;BME280;38939;47.824;14.642;2023-07-09T05:11:47;97457.81;;;19.18;77.95
39769;BME280;38939;47.824;14.642;2023-07-09T05:12:50;97449.88;;;19.18;78.02
39769;BME280;38939;47.824;14.642;2023-07-09T05:13:52;97459.66;;;19.18;77.83
39769;BME280;38939;47.824;14.642;2023-07-09T05:14:55;97459.44;;;19.19;77.74
39769;BME280;38939;47.824;14.642;2023-07-09T05:15:58;97453.09;;;19.21;77.97
39769;BME280;38939;47.824;14.642;2023-07-09T05:16:59;97459.19;;;19.21;77.84
39769;BME280;38939;47.824;14.642;2023-07-09T05:18:01;97461.56;;;19.23;77.46
39769;BME280;38939;47.824;14.642;2023-07-09T05:19:03;97458.69;;;19.24;77.44
39769;BME280;38939;47.824;14.642;2023-07-09T05:20:05;97460.31;;;19.25;77.33
39769;BME280;38939;47.824;14.642;2023-07-09T05:21:07;97461.91;;;19.26;77.32
39769;BME280;38939;47.824;14.642;2023-07-09T05:22:09;97457.66;;;19.25;77.27
39769;BME280;38939;47.824;14.642;2023-07-09T05:23:11;97458.69;;;19.24;77.35
39769;BME280;38939;47.824;14.642;2023-07-09T05:24:12;97454.69;;;19.22;77.32
39769;BME280;38939;47.824;14.642;2023-07-09T05:25:14;97460.00;;;19.22;77.65
39769;BME280;38939;47.824;14.642;2023-07-09T05:26:16;97462.88;;;19.20;78.06
39769;BME280;38939;47.824;14.642;2023-07-09T05:27:18;97462.88;;;19.20;78.16
39769;BME280;38939;47.824;14.642;2023-07-09T05:28:20;97461.00;;;19.21;78.09
39769;BME280;38939;47.824;14.642;2023-07-09T05:29:22;97462.63;;;19.22;77.94